CheckWX is a tool to help pilots better visualize weather data.  It is not intended as a substitute for an official pre-flight weather briefing.

05:14:29 UTC

VOCL TAF
Calicut International Airport
Calicut, India
TAF VOCL 180200Z 1803/1812 25010KT 6000 FEW015 FEW025CB BKN080 TEMPO 1810/1812 3000 TS SCT012 FEW025CB BKN080

Jun-18@
03:00 UTC

Jun-18 @ 03:00 UTC

Jun-18@
12:00 UTC

Jun-18 @ 12:00 UTC

TAF VOCL 180200Z 1803/1812 25010KT 6000 FEW015 FEW025CB BKN080
Wind
  • 250° at 10 KTS
Cloud Levels
  • Few at 1,500' AGL
  • Few at 2,500' AGL
  • Broken at 8,000' AGL

Jun-18@
10:00 UTC

Jun-18 @ 10:00 UTC

Jun-18@
12:00 UTC

Jun-18 @ 12:00 UTC

TEMPO 1810/1812 3000 TS SCT012 FEW025CB BKN080

Temporary

Temporary Changes expected for less than half the time period

Conditions
Thunderstorm
Cloud Levels
  • Scattered at 1,200' AGL
  • Few at 2,500' AGL
  • Broken at 8,000' AGL